Terminal Aerodrome Forecast
Issued by NWS Bismarck, ND

Home | Current Version | Previous Version | Graphics & Text | Print | Product List | Glossary On
Versions: 1 2 3 4 5 6 7 8 9 10 11 12 13 14 15 16 17 18
470
FTUS43 KBIS 181129
TAFISN
TAF
KISN 181129Z 1812/1912 30008KT P6SM SCT020
      TEMPO 1812/1813 BKN020
     FM181700 29013KT P6SM FEW250
     FM182100 26010KT P6SM FEW250
     FM190600 22006KT P6SM SCT250=

USA.gov is the U.S. government's official web portal to all federal, state and local government web resources and services.